Time;durP1;ratioP1;P1;durP2;ratioP2;P2;SDS_P1;SDS_P2;PMS_P1;PMS_P2;Temp;Humidity;BMP_temperature;BMP_pressure;BME280_temperature;BME280_humidity;BME280_pressure;Samples;Min_cycle;Max_cycle;Signal;HPM_P1;HPM_P2
2023/04/30 00:01:54;;;;;;;23.20;17.90;;;;;;;;;;107571;1252;22537;-78
2023/04/30 00:04:20;;;;;;;21.60;14.90;;;;;;;;;;107556;1253;22584;-79
2023/04/30 00:06:46;;;;;;;21.50;15.60;;;;;;;;;;107547;1250;23899;-78
2023/04/30 00:09:13;;;;;;;23.80;17.30;;;;;;;;;;107602;1250;25584;-79
2023/04/30 00:11:39;;;;;;;18.00;13.50;;;;;;;;;;107588;1253;22539;-78
2023/04/30 00:14:05;;;;;;;19.30;14.20;;;;;;;;;;107552;1250;22862;-79
2023/04/30 00:16:32;;;;;;;21.70;16.00;;;;;;;;;;107559;1253;22532;-78
2023/04/30 00:18:58;;;;;;;21.20;15.40;;;;;;;;;;107888;1250;23010;-78
2023/04/30 00:21:25;;;;;;;20.70;15.60;;;;;;;;;;107610;1251;24305;-79
2023/04/30 00:23:51;;;;;;;26.90;18.10;;;;;;;;;;107575;1248;22707;-79
2023/04/30 00:26:17;;;;;;;32.10;24.40;;;;;;;;;;107563;1251;22643;-78
2023/04/30 00:28:44;;;;;;;29.80;22.10;;;;;;;;;;107585;1251;24215;-79
2023/04/30 00:31:10;;;;;;;22.70;17.10;;;;;;;;;;107577;1249;22544;-79
2023/04/30 00:33:36;;;;;;;21.90;16.50;;;;;;;;;;107606;1251;25353;-79
2023/04/30 00:36:03;;;;;;;19.10;14.60;;;;;;;;;;107584;1252;22538;-79
2023/04/30 00:38:29;;;;;;;20.80;15.40;;;;;;;;;;107564;1251;25303;-79
2023/04/30 00:40:56;;;;;;;22.10;16.90;;;;;;;;;;107567;1254;22640;-79
2023/04/30 00:43:22;;;;;;;22.60;17.50;;;;;;;;;;107640;1252;22547;-77
2023/04/30 00:45:48;;;;;;;21.60;16.20;;;;;;;;;;107567;1252;22528;-79
2023/04/30 00:48:15;;;;;;;21.70;16.60;;;;;;;;;;107500;1253;24354;-78
2023/04/30 00:50:41;;;;;;;20.70;15.00;;;;;;;;;;107558;1251;23890;-78
2023/04/30 00:53:08;;;;;;;16.50;12.70;;;;;;;;;;107545;1251;22894;-77
2023/04/30 00:55:34;;;;;;;18.80;14.00;;;;;;;;;;107581;1253;22527;-77
2023/04/30 00:58:01;;;;;;;21.40;16.00;;;;;;;;;;107602;1253;23113;-79
2023/04/30 01:00:27;;;;;;;17.60;12.90;;;;;;;;;;107535;1249;22561;-77
2023/04/30 01:02:54;;;;;;;17.50;14.30;;;;;;;;;;107707;1252;22561;-78
2023/04/30 01:05:21;;;;;;;18.50;13.90;;;;;;;;;;107918;1250;25243;-78
2023/04/30 01:07:48;;;;;;;19.60;14.00;;;;;;;;;;107587;1253;22518;-79
2023/04/30 01:10:14;;;;;;;16.80;12.80;;;;;;;;;;107577;1251;22529;-78
2023/04/30 01:12:41;;;;;;;18.10;14.30;;;;;;;;;;107623;1251;22767;-77
2023/04/30 01:15:17;;;;;;;20.30;14.30;;;;;;;;;;107594;1248;27523;-78
2023/04/30 01:17:43;;;;;;;21.40;15.20;;;;;;;;;;107596;1250;26421;-78
2023/04/30 01:20:10;;;;;;;20.60;15.00;;;;;;;;;;108103;1251;22496;-78
2023/04/30 01:22:50;;;;;;;20.30;15.50;;;;;;;;;;107802;1251;22522;-77
2023/04/30 01:25:16;;;;;;;22.10;15.60;;;;;;;;;;108218;1251;22067;-78
2023/04/30 01:28:08;;;;;;;23.10;15.00;;;;;;;;;;107614;1251;25354;-79
2023/04/30 01:30:35;;;;;;;21.30;16.10;;;;;;;;;;108338;1250;25323;-78
2023/04/30 01:33:01;;;;;;;22.20;15.10;;;;;;;;;;107675;1251;25226;-79
2023/04/30 01:35:37;;;;;;;23.20;16.40;;;;;;;;;;107670;1252;22986;-78
2023/04/30 01:38:22;;;;;;;24.30;15.50;;;;;;;;;;107604;1251;23592;-79
2023/04/30 01:40:54;;;;;;;22.00;16.70;;;;;;;;;;107644;1251;22544;-78
2023/04/30 01:43:25;;;;;;;24.40;16.20;;;;;;;;;;107582;1251;22519;-77
2023/04/30 01:45:56;;;;;;;21.80;16.80;;;;;;;;;;107618;1250;22537;-78
2023/04/30 01:48:32;;;;;;;25.10;16.50;;;;;;;;;;107603;1252;22556;-78
2023/04/30 01:51:34;;;;;;;27.00;16.10;;;;;;;;;;107561;1251;22610;-78
2023/04/30 01:54:10;;;;;;;22.80;15.80;;;;;;;;;;107143;1257;22586;-79
2023/04/30 01:56:38;;;;;;;24.50;15.30;;;;;;;;;;107544;1253;22548;-78
2023/04/30 01:59:05;;;;;;;23.00;14.30;;;;;;;;;;107388;1250;186024;-78
2023/04/30 02:01:31;;;;;;;23.40;15.70;;;;;;;;;;107730;1251;22653;-80
2023/04/30 02:03:58;;;;;;;23.10;16.60;;;;;;;;;;107612;1251;22518;-79
2023/04/30 02:06:28;;;;;;;24.70;17.60;;;;;;;;;;107250;1251;62021;-79
2023/04/30 02:08:58;;;;;;;19.80;13.80;;;;;;;;;;106926;1257;62143;-80
2023/04/30 02:11:24;;;;;;;20.80;13.80;;;;;;;;;;106866;1252;62381;-80
2023/04/30 02:13:51;;;;;;;20.40;13.20;;;;;;;;;;106862;1252;61968;-80
2023/04/30 02:16:17;;;;;;;22.40;15.70;;;;;;;;;;106741;1251;61936;-80
2023/04/30 02:18:44;;;;;;;20.90;15.00;;;;;;;;;;106720;1249;62133;-80
2023/04/30 02:21:10;;;;;;;20.30;14.90;;;;;;;;;;108260;1250;59729;-77
2023/04/30 02:23:37;;;;;;;25.00;16.10;;;;;;;;;;107593;1251;26010;-78
2023/04/30 02:26:03;;;;;;;23.90;15.50;;;;;;;;;;107252;1251;62043;-76
2023/04/30 02:28:30;;;;;;;25.50;16.50;;;;;;;;;;107406;1251;61914;-78
2023/04/30 02:30:56;;;;;;;26.90;17.60;;;;;;;;;;107431;1251;62059;-77
2023/04/30 02:33:23;;;;;;;33.30;20.30;;;;;;;;;;107654;1250;22550;-77
2023/04/30 02:35:49;;;;;;;34.70;21.60;;;;;;;;;;109770;1251;55775;-79
2023/04/30 02:38:15;;;;;;;34.60;21.70;;;;;;;;;;107612;1252;23275;-78
2023/04/30 02:40:42;;;;;;;34.90;22.80;;;;;;;;;;109895;1250;59806;-78
2023/04/30 02:43:08;;;;;;;33.60;21.20;;;;;;;;;;107449;1251;62025;-78
2023/04/30 02:45:34;;;;;;;39.00;22.40;;;;;;;;;;106766;1249;62140;-77
2023/04/30 02:48:01;;;;;;;33.70;20.80;;;;;;;;;;106747;1250;62150;-77
2023/04/30 02:50:27;;;;;;;37.10;22.10;;;;;;;;;;106948;1253;62110;-78
2023/04/30 02:52:55;;;;;;;32.50;20.40;;;;;;;;;;107438;1251;56463;-78
2023/04/30 02:55:21;;;;;;;31.90;19.90;;;;;;;;;;107487;1251;61909;-77
2023/04/30 02:57:47;;;;;;;30.10;19.10;;;;;;;;;;107014;1251;62010;-78
2023/04/30 03:00:14;;;;;;;31.40;20.50;;;;;;;;;;107273;1249;61941;-78
2023/04/30 03:02:40;;;;;;;33.10;19.60;;;;;;;;;;107324;1251;61075;-79
2023/04/30 03:05:07;;;;;;;32.20;20.30;;;;;;;;;;106745;1249;62141;-78
2023/04/30 03:07:33;;;;;;;36.90;18.80;;;;;;;;;;106832;1250;62136;-78
2023/04/30 03:10:00;;;;;;;33.80;20.70;;;;;;;;;;106868;1253;62038;-77
2023/04/30 03:12:26;;;;;;;33.20;19.70;;;;;;;;;;106908;1248;61915;-78
2023/04/30 03:14:52;;;;;;;29.10;18.60;;;;;;;;;;107200;1251;62399;-77
2023/04/30 03:17:19;;;;;;;31.20;16.60;;;;;;;;;;107559;1248;60565;-79
2023/04/30 03:19:45;;;;;;;30.20;16.20;;;;;;;;;;107595;1251;55885;-77
2023/04/30 03:22:11;;;;;;;29.20;17.40;;;;;;;;;;107541;1252;59211;-79
2023/04/30 03:24:38;;;;;;;25.80;16.60;;;;;;;;;;108785;1250;56367;-80
2023/04/30 03:27:04;;;;;;;26.90;16.70;;;;;;;;;;108991;1249;43848;-78
2023/04/30 03:29:31;;;;;;;25.70;15.20;;;;;;;;;;107351;1251;61192;-79
2023/04/30 03:31:57;;;;;;;31.90;17.90;;;;;;;;;;107561;1250;59350;-78
2023/04/30 03:34:23;;;;;;;27.40;16.00;;;;;;;;;;107501;1251;56940;-79
2023/04/30 03:36:50;;;;;;;30.20;16.50;;;;;;;;;;107406;1248;59273;-77
2023/04/30 03:39:16;;;;;;;30.30;17.80;;;;;;;;;;107967;1248;46877;-78
2023/04/30 03:41:43;;;;;;;28.10;16.80;;;;;;;;;;107742;1249;22853;-78
2023/04/30 03:44:14;;;;;;;33.80;17.40;;;;;;;;;;107692;1253;59872;-79
2023/04/30 03:46:42;;;;;;;26.80;15.90;;;;;;;;;;108974;1251;56803;-78
2023/04/30 03:49:08;;;;;;;30.00;17.60;;;;;;;;;;108389;1251;24817;-79
2023/04/30 03:51:38;;;;;;;26.20;16.90;;;;;;;;;;107511;1252;61884;-80
2023/04/30 03:54:05;;;;;;;28.00;16.90;;;;;;;;;;107399;1250;62002;-78
2023/04/30 03:56:32;;;;;;;31.30;17.30;;;;;;;;;;106915;1248;62043;-78
2023/04/30 03:58:58;;;;;;;29.70;15.90;;;;;;;;;;107039;1250;61958;-79
2023/04/30 04:01:24;;;;;;;26.40;17.50;;;;;;;;;;107605;1250;61682;-76
2023/04/30 04:03:51;;;;;;;25.20;15.80;;;;;;;;;;107531;1251;56646;-77
2023/04/30 04:06:17;;;;;;;21.90;14.20;;;;;;;;;;107626;1250;22556;-78
2023/04/30 04:08:43;;;;;;;24.70;15.40;;;;;;;;;;107308;1249;59295;-78
2023/04/30 04:11:10;;;;;;;21.60;14.20;;;;;;;;;;107217;1250;62034;-76
2023/04/30 04:13:36;;;;;;;25.90;14.60;;;;;;;;;;106714;1253;62054;-78
2023/04/30 04:16:03;;;;;;;19.50;14.40;;;;;;;;;;106796;1253;63029;-78
2023/04/30 04:18:29;;;;;;;21.70;13.20;;;;;;;;;;106777;1253;61910;-78
2023/04/30 04:20:55;;;;;;;27.20;16.70;;;;;;;;;;106867;1251;62149;-76
2023/04/30 04:23:22;;;;;;;25.70;16.10;;;;;;;;;;107369;1250;59523;-78
2023/04/30 04:25:48;;;;;;;24.00;15.90;;;;;;;;;;107586;1250;59008;-76
2023/04/30 04:28:15;;;;;;;25.10;15.30;;;;;;;;;;107482;1252;59220;-78
2023/04/30 04:30:42;;;;;;;18.40;12.20;;;;;;;;;;107564;1251;59998;-77
2023/04/30 04:33:09;;;;;;;19.70;12.10;;;;;;;;;;107522;1251;57811;-78
2023/04/30 04:35:36;;;;;;;18.70;11.50;;;;;;;;;;107136;1251;61997;-78
2023/04/30 04:38:03;;;;;;;16.50;11.50;;;;;;;;;;106872;1250;62406;-78
2023/04/30 04:40:29;;;;;;;16.00;10.70;;;;;;;;;;106733;1248;63041;-76
2023/04/30 04:42:56;;;;;;;13.80;9.00;;;;;;;;;;106922;1250;62044;-78
2023/04/30 04:45:23;;;;;;;12.80;9.40;;;;;;;;;;106838;1253;62173;-77
2023/04/30 04:47:49;;;;;;;13.30;9.50;;;;;;;;;;107142;1250;62041;-78
2023/04/30 04:50:16;;;;;;;14.70;8.30;;;;;;;;;;107611;1251;22560;-78
2023/04/30 04:52:43;;;;;;;16.00;10.30;;;;;;;;;;107523;1252;62004;-76
2023/04/30 04:55:11;;;;;;;12.20;8.70;;;;;;;;;;107623;1250;22648;-77
2023/04/30 04:57:37;;;;;;;10.20;7.60;;;;;;;;;;107473;1250;62034;-78
2023/04/30 05:00:06;;;;;;;15.40;10.70;;;;;;;;;;107445;1253;57842;-77
2023/04/30 05:02:33;;;;;;;15.40;11.10;;;;;;;;;;107571;1250;61960;-77
2023/04/30 05:05:00;;;;;;;13.30;9.50;;;;;;;;;;106727;1250;61145;-78
2023/04/30 05:07:26;;;;;;;12.30;9.20;;;;;;;;;;106908;1249;62157;-76
2023/04/30 05:09:53;;;;;;;14.00;9.40;;;;;;;;;;107540;1250;46786;-76
2023/04/30 05:12:19;;;;;;;13.30;10.40;;;;;;;;;;107385;1253;62014;-76
2023/04/30 05:14:48;;;;;;;18.90;11.90;;;;;;;;;;107542;1251;61659;-78
2023/04/30 05:17:14;;;;;;;16.50;12.90;;;;;;;;;;107558;1250;56423;-76
2023/04/30 05:19:40;;;;;;;22.40;15.40;;;;;;;;;;107608;1249;26412;-76
2023/04/30 05:22:07;;;;;;;22.40;15.60;;;;;;;;;;107594;1252;22580;-76
2023/04/30 05:24:33;;;;;;;22.30;16.20;;;;;;;;;;107578;1250;22525;-76
2023/04/30 05:27:01;;;;;;;22.70;14.60;;;;;;;;;;107618;1250;24111;-77
2023/04/30 05:29:28;;;;;;;20.60;14.90;;;;;;;;;;107618;1250;25470;-78
2023/04/30 05:31:54;;;;;;;19.50;14.70;;;;;;;;;;107573;1250;25278;-80
2023/04/30 05:34:21;;;;;;;21.00;14.50;;;;;;;;;;107695;1250;25006;-78
2023/04/30 05:36:47;;;;;;;19.80;14.40;;;;;;;;;;107786;1249;22525;-77
2023/04/30 05:39:13;;;;;;;20.30;14.60;;;;;;;;;;107594;1249;56307;-78
2023/04/30 05:41:40;;;;;;;19.30;14.10;;;;;;;;;;107626;1248;57066;-80
2023/04/30 05:44:06;;;;;;;19.80;13.60;;;;;;;;;;107666;1250;22518;-79
2023/04/30 05:46:34;;;;;;;16.40;12.30;;;;;;;;;;107613;1250;26604;-77
2023/04/30 05:49:00;;;;;;;18.00;12.90;;;;;;;;;;107646;1250;24403;-79
2023/04/30 05:51:27;;;;;;;21.70;13.20;;;;;;;;;;107644;1249;22540;-79
2023/04/30 05:53:54;;;;;;;17.80;13.10;;;;;;;;;;107619;1252;23222;-78
2023/04/30 05:56:20;;;;;;;17.50;12.00;;;;;;;;;;107688;1251;22525;-77
2023/04/30 05:58:47;;;;;;;19.10;12.20;;;;;;;;;;107620;1250;22690;-79
2023/04/30 06:01:13;;;;;;;19.60;12.90;;;;;;;;;;107646;1252;22530;-77
2023/04/30 06:03:39;;;;;;;21.30;13.50;;;;;;;;;;107651;1252;22520;-77
2023/04/30 06:06:06;;;;;;;20.00;14.40;;;;;;;;;;107563;1249;22519;-77
2023/04/30 06:08:32;;;;;;;20.40;14.20;;;;;;;;;;107638;1250;22578;-78
2023/04/30 06:10:59;;;;;;;23.20;15.10;;;;;;;;;;107674;1252;24264;-79
2023/04/30 06:13:25;;;;;;;22.80;15.60;;;;;;;;;;107754;1250;25263;-79
2023/04/30 06:15:52;;;;;;;24.70;16.80;;;;;;;;;;107667;1248;23958;-77
2023/04/30 06:18:19;;;;;;;24.20;16.60;;;;;;;;;;107574;1250;22534;-79
2023/04/30 06:20:45;;;;;;;29.20;18.70;;;;;;;;;;107611;1250;22873;-79
2023/04/30 06:23:11;;;;;;;27.50;18.20;;;;;;;;;;107584;1250;25312;-78
2023/04/30 06:25:38;;;;;;;27.00;18.00;;;;;;;;;;107601;1249;24200;-79
2023/04/30 06:28:04;;;;;;;24.70;18.20;;;;;;;;;;107616;1249;23994;-78
2023/04/30 06:30:31;;;;;;;26.80;18.10;;;;;;;;;;107634;1250;25347;-78
2023/04/30 06:32:57;;;;;;;29.60;21.00;;;;;;;;;;107719;1248;24192;-79
2023/04/30 06:35:23;;;;;;;28.90;20.30;;;;;;;;;;107655;1248;25499;-79
2023/04/30 06:37:50;;;;;;;33.20;22.80;;;;;;;;;;107612;1250;25460;-78
2023/04/30 06:40:16;;;;;;;38.00;23.60;;;;;;;;;;107646;1250;25370;-79
2023/04/30 06:42:43;;;;;;;80.90;56.80;;;;;;;;;;107628;1248;24462;-79
2023/04/30 06:45:09;;;;;;;76.00;53.60;;;;;;;;;;107649;1250;25393;-79
2023/04/30 06:47:37;;;;;;;71.60;55.60;;;;;;;;;;107612;1248;22550;-79
2023/04/30 06:50:03;;;;;;;45.20;35.60;;;;;;;;;;107251;1248;59968;-79
2023/04/30 06:52:30;;;;;;;43.30;29.20;;;;;;;;;;107575;1252;38570;-79
2023/04/30 06:54:56;;;;;;;32.40;22.10;;;;;;;;;;107426;1248;59299;-78
2023/04/30 06:57:24;;;;;;;26.70;18.00;;;;;;;;;;107601;1250;58876;-78
2023/04/30 06:59:50;;;;;;;28.20;16.20;;;;;;;;;;107588;1250;57069;-78
2023/04/30 07:02:17;;;;;;;24.90;15.50;;;;;;;;;;107610;1250;57719;-79
2023/04/30 07:04:43;;;;;;;27.10;17.00;;;;;;;;;;107540;1250;58959;-78
2023/04/30 07:07:10;;;;;;;22.50;15.30;;;;;;;;;;107651;1248;22646;-78
2023/04/30 07:09:36;;;;;;;24.40;15.50;;;;;;;;;;107645;1249;25340;-79
2023/04/30 07:12:03;;;;;;;20.60;14.70;;;;;;;;;;107657;1250;25388;-78
2023/04/30 07:14:29;;;;;;;26.50;15.90;;;;;;;;;;107713;1250;25231;-79
2023/04/30 07:16:55;;;;;;;26.00;16.60;;;;;;;;;;107621;1250;22528;-78
2023/04/30 07:19:22;;;;;;;25.90;17.20;;;;;;;;;;107683;1250;25343;-79
2023/04/30 07:21:49;;;;;;;22.50;15.90;;;;;;;;;;107661;1250;22711;-78
2023/04/30 07:24:15;;;;;;;23.60;16.90;;;;;;;;;;107633;1249;22532;-78
2023/04/30 07:26:41;;;;;;;21.90;14.20;;;;;;;;;;107605;1249;22530;-78
2023/04/30 07:29:07;;;;;;;23.20;15.90;;;;;;;;;;107661;1249;25310;-78
2023/04/30 07:31:34;;;;;;;26.80;16.30;;;;;;;;;;107605;1249;22562;-78
2023/04/30 07:34:00;;;;;;;40.60;22.60;;;;;;;;;;107631;1248;22546;-79
2023/04/30 07:36:26;;;;;;;39.10;21.50;;;;;;;;;;107604;1250;22530;-78
2023/04/30 07:38:53;;;;;;;28.10;16.20;;;;;;;;;;107645;1249;25298;-78
2023/04/30 07:41:20;;;;;;;24.10;15.70;;;;;;;;;;107634;1249;22524;-79
2023/04/30 07:43:47;;;;;;;29.10;19.20;;;;;;;;;;107705;1248;23414;-79
2023/04/30 07:46:13;;;;;;;21.00;15.10;;;;;;;;;;107596;1250;22518;-79
2023/04/30 07:48:40;;;;;;;20.00;14.50;;;;;;;;;;107610;1249;22638;-80
2023/04/30 07:51:06;;;;;;;20.50;15.10;;;;;;;;;;107628;1249;22811;-79
2023/04/30 07:53:32;;;;;;;20.50;14.80;;;;;;;;;;107629;1250;25350;-78
2023/04/30 07:55:59;;;;;;;21.30;14.70;;;;;;;;;;107645;1249;22521;-78
2023/04/30 07:58:26;;;;;;;21.50;15.10;;;;;;;;;;107642;1250;22635;-78
2023/04/30 08:00:52;;;;;;;23.60;15.70;;;;;;;;;;107657;1250;25368;-79
2023/04/30 08:03:19;;;;;;;28.20;18.00;;;;;;;;;;107587;1249;22542;-80
2023/04/30 08:05:46;;;;;;;16.50;12.80;;;;;;;;;;109277;1249;24214;-78
2023/04/30 08:08:12;;;;;;;19.30;13.50;;;;;;;;;;107593;1250;22701;-78
2023/04/30 08:10:40;;;;;;;20.40;13.90;;;;;;;;;;107633;1248;22548;-79
2023/04/30 08:13:07;;;;;;;17.70;14.20;;;;;;;;;;107617;1248;22764;-79
2023/04/30 08:15:33;;;;;;;26.90;15.60;;;;;;;;;;107674;1249;22630;-79
2023/04/30 08:17:59;;;;;;;23.80;17.20;;;;;;;;;;107628;1252;25224;-79
2023/04/30 08:20:26;;;;;;;21.20;14.10;;;;;;;;;;107661;1250;22528;-79
2023/04/30 08:22:52;;;;;;;16.20;12.20;;;;;;;;;;107637;1249;24206;-78
2023/04/30 08:25:19;;;;;;;20.70;13.10;;;;;;;;;;107613;1249;25399;-78
2023/04/30 08:27:45;;;;;;;15.70;11.70;;;;;;;;;;107634;1249;27630;-78
2023/04/30 08:30:11;;;;;;;16.20;13.60;;;;;;;;;;109328;1249;22297;-78
2023/04/30 08:32:38;;;;;;;17.00;12.50;;;;;;;;;;107653;1253;22546;-78
2023/04/30 08:35:05;;;;;;;20.00;14.60;;;;;;;;;;107606;1251;22557;-78
2023/04/30 08:37:31;;;;;;;18.00;12.40;;;;;;;;;;107647;1249;22548;-78
2023/04/30 08:39:57;;;;;;;18.40;13.80;;;;;;;;;;107672;1249;24428;-77
2023/04/30 08:42:24;;;;;;;26.80;15.90;;;;;;;;;;107657;1248;22541;-77
2023/04/30 08:44:51;;;;;;;21.50;14.80;;;;;;;;;;108778;1249;22551;-78
2023/04/30 08:47:17;;;;;;;19.20;12.10;;;;;;;;;;107633;1250;25231;-77
2023/04/30 08:49:44;;;;;;;16.50;12.40;;;;;;;;;;107661;1249;22524;-78
2023/04/30 08:52:10;;;;;;;18.90;13.20;;;;;;;;;;109087;1249;26591;-77
2023/04/30 08:54:37;;;;;;;20.20;12.30;;;;;;;;;;107559;1248;24187;-78
2023/04/30 08:57:04;;;;;;;20.20;13.80;;;;;;;;;;107611;1250;24197;-78
2023/04/30 08:59:30;;;;;;;16.40;12.50;;;;;;;;;;108332;1249;54745;-79
2023/04/30 09:01:56;;;;;;;17.90;12.50;;;;;;;;;;107575;1250;58906;-77
2023/04/30 09:04:23;;;;;;;19.90;13.40;;;;;;;;;;107484;1248;24341;-79
2023/04/30 09:06:51;;;;;;;17.90;13.40;;;;;;;;;;107615;1250;25323;-78
2023/04/30 09:09:17;;;;;;;25.00;18.20;;;;;;;;;;107585;1250;23768;-77
2023/04/30 09:11:44;;;;;;;17.40;12.60;;;;;;;;;;107577;1250;55858;-78
2023/04/30 09:14:11;;;;;;;15.40;11.20;;;;;;;;;;107628;1249;22519;-78
2023/04/30 09:16:48;;;;;;;13.70;10.90;;;;;;;;;;107577;1250;22608;-78
2023/04/30 09:19:24;;;;;;;15.20;12.10;;;;;;;;;;107606;1248;22540;-77
2023/04/30 09:21:50;;;;;;;19.20;14.80;;;;;;;;;;107652;1248;22532;-79
2023/04/30 09:24:16;;;;;;;15.30;11.60;;;;;;;;;;107663;1248;22547;-78
2023/04/30 09:26:45;;;;;;;15.60;10.30;;;;;;;;;;107607;1249;22521;-79
2023/04/30 09:29:12;;;;;;;18.30;11.00;;;;;;;;;;107877;1250;25396;-79
2023/04/30 09:31:40;;;;;;;13.20;9.40;;;;;;;;;;107614;1252;46731;-77
2023/04/30 09:34:07;;;;;;;12.10;9.30;;;;;;;;;;107644;1250;22526;-77
2023/04/30 09:36:33;;;;;;;38.00;21.20;;;;;;;;;;107661;1250;25234;-79
2023/04/30 09:39:07;;;;;;;18.30;10.80;;;;;;;;;;107296;1253;62089;-79
2023/04/30 09:41:33;;;;;;;14.60;10.30;;;;;;;;;;107148;1248;61959;-79
2023/04/30 09:44:00;;;;;;;11.40;9.30;;;;;;;;;;107237;1251;61914;-79
2023/04/30 09:46:30;;;;;;;14.70;9.20;;;;;;;;;;107551;1249;58076;-78
2023/04/30 09:48:57;;;;;;;12.40;8.80;;;;;;;;;;107601;1248;25221;-79
2023/04/30 09:51:23;;;;;;;12.20;8.50;;;;;;;;;;107622;1249;26033;-77
2023/04/30 09:53:50;;;;;;;11.10;8.90;;;;;;;;;;107580;1252;22542;-79
2023/04/30 09:56:19;;;;;;;11.20;9.00;;;;;;;;;;107639;1250;22531;-77
2023/04/30 09:58:45;;;;;;;;;;;;;;;;;;107235;1250;62104;-77
2023/04/30 10:01:11;;;;;;;9.90;7.40;;;;;;;;;;107474;1250;59630;-77
2023/04/30 10:03:38;;;;;;;9.20;6.40;;;;;;;;;;107618;1250;23915;-77
2023/04/30 10:06:05;;;;;;;12.70;7.30;;;;;;;;;;107611;1250;23271;-77
2023/04/30 10:08:37;;;;;;;10.90;8.00;;;;;;;;;;109779;1252;25464;-79
2023/04/30 10:11:04;;;;;;;10.00;6.50;;;;;;;;;;107634;1248;22532;-77
2023/04/30 10:13:32;;;;;;;11.80;7.90;;;;;;;;;;110618;1249;22624;-77
2023/04/30 10:16:00;;;;;;;9.10;6.30;;;;;;;;;;107627;1250;22606;-79
2023/04/30 10:18:36;;;;;;;14.10;7.40;;;;;;;;;;107659;1250;22694;-77
2023/04/30 10:21:04;;;;;;;9.00;7.20;;;;;;;;;;107632;1249;22531;-78
2023/04/30 10:23:30;;;;;;;13.30;7.00;;;;;;;;;;107581;1248;23993;-79
2023/04/30 10:25:57;;;;;;;14.30;8.30;;;;;;;;;;107609;1250;22616;-78
2023/04/30 10:28:23;;;;;;;9.10;6.60;;;;;;;;;;107561;1250;24261;-79
2023/04/30 10:30:50;;;;;;;8.00;6.50;;;;;;;;;;107583;1249;22988;-78
2023/04/30 10:33:35;;;;;;;15.40;9.70;;;;;;;;;;107599;1250;26373;-77
2023/04/30 10:36:03;;;;;;;13.60;8.70;;;;;;;;;;107661;1252;22534;-78
2023/04/30 10:38:31;;;;;;;13.10;7.60;;;;;;;;;;110954;1249;22834;-80
2023/04/30 10:40:57;;;;;;;12.20;5.80;;;;;;;;;;110901;1250;22884;-80
2023/04/30 10:43:24;;;;;;;15.90;10.00;;;;;;;;;;110953;1248;23020;-78
2023/04/30 10:45:51;;;;;;;8.40;6.50;;;;;;;;;;110974;1248;22470;-80
2023/04/30 10:48:23;;;;;;;9.80;6.30;;;;;;;;;;110973;1250;22113;-79
2023/04/30 10:50:59;;;;;;;9.20;6.40;;;;;;;;;;110936;1248;22337;-80
2023/04/30 10:53:28;;;;;;;9.50;6.00;;;;;;;;;;109746;1249;22899;-79
2023/04/30 10:56:07;;;;;;;9.40;7.20;;;;;;;;;;107583;1250;23185;-78
2023/04/30 10:58:35;;;;;;;9.00;5.90;;;;;;;;;;107598;1254;22534;-77
2023/04/30 11:01:01;;;;;;;9.10;6.20;;;;;;;;;;107602;1250;25472;-78
2023/04/30 11:03:28;;;;;;;7.70;5.40;;;;;;;;;;107636;1249;22559;-77
2023/04/30 11:05:55;;;;;;;9.80;6.00;;;;;;;;;;107612;1252;22982;-78
2023/04/30 11:08:42;;;;;;;9.20;5.60;;;;;;;;;;107620;1249;24090;-76
2023/04/30 11:11:08;;;;;;;8.40;5.00;;;;;;;;;;107671;1250;25388;-77
2023/04/30 11:13:45;;;;;;;9.20;5.50;;;;;;;;;;107617;1253;23625;-78
2023/04/30 11:16:11;;;;;;;5.90;4.60;;;;;;;;;;110942;1248;22392;-78
2023/04/30 11:18:42;;;;;;;10.50;6.10;;;;;;;;;;109799;1249;23255;-79
2023/04/30 11:21:09;;;;;;;12.20;8.10;;;;;;;;;;107866;1250;22524;-77
2023/04/30 11:23:35;;;;;;;8.10;5.00;;;;;;;;;;107646;1250;25354;-79
2023/04/30 11:26:02;;;;;;;13.00;7.50;;;;;;;;;;107589;1250;23230;-79
2023/04/30 11:28:31;;;;;;;6.70;4.90;;;;;;;;;;107574;1248;23271;-77
2023/04/30 11:30:58;;;;;;;10.90;5.10;;;;;;;;;;107623;1248;25333;-77
2023/04/30 11:33:25;;;;;;;7.00;4.80;;;;;;;;;;107604;1250;25447;-77
2023/04/30 11:35:52;;;;;;;7.60;4.90;;;;;;;;;;107980;1250;22525;-77
2023/04/30 11:38:25;;;;;;;7.40;4.60;;;;;;;;;;107585;1251;22530;-78
2023/04/30 11:40:52;;;;;;;8.70;5.20;;;;;;;;;;107574;1249;24077;-78
2023/04/30 11:43:23;;;;;;;10.80;5.90;;;;;;;;;;107530;1250;25237;-79
2023/04/30 11:46:04;;;;;;;7.00;5.90;;;;;;;;;;107572;1248;22609;-78
2023/04/30 11:48:31;;;;;;;7.70;5.20;;;;;;;;;;107571;1252;22521;-79
2023/04/30 11:50:57;;;;;;;10.60;4.70;;;;;;;;;;109038;1250;22971;-78
2023/04/30 11:53:28;;;;;;;6.30;3.60;;;;;;;;;;107613;1250;22647;-78
2023/04/30 11:55:54;;;;;;;9.60;5.50;;;;;;;;;;107567;1248;25493;-77
2023/04/30 11:58:21;;;;;;;6.30;5.00;;;;;;;;;;107503;1250;59410;-79
2023/04/30 12:00:48;;;;;;;6.80;4.80;;;;;;;;;;107620;1250;25562;-77
2023/04/30 12:03:16;;;;;;;8.10;4.80;;;;;;;;;;107564;1253;25503;-79
2023/04/30 12:05:42;;;;;;;5.70;4.50;;;;;;;;;;107571;1252;22533;-77
2023/04/30 12:08:09;;;;;;;6.80;4.40;;;;;;;;;;107617;1250;22626;-78
2023/04/30 12:10:36;;;;;;;7.20;4.40;;;;;;;;;;107528;1250;59331;-77
2023/04/30 12:13:02;;;;;;;8.50;4.40;;;;;;;;;;107611;1248;24371;-77
2023/04/30 12:15:28;;;;;;;5.90;3.60;;;;;;;;;;107575;1250;25347;-79
2023/04/30 12:17:55;;;;;;;4.60;3.40;;;;;;;;;;107612;1249;25220;-77
2023/04/30 12:20:22;;;;;;;7.30;3.70;;;;;;;;;;107556;1252;22531;-79
2023/04/30 12:22:48;;;;;;;6.40;3.70;;;;;;;;;;107617;1248;24225;-77
2023/04/30 12:25:16;;;;;;;9.90;4.10;;;;;;;;;;107563;1252;26348;-77
2023/04/30 12:27:50;;;;;;;6.00;3.20;;;;;;;;;;107609;1252;22508;-77
2023/04/30 12:30:20;;;;;;;8.30;4.70;;;;;;;;;;108131;1249;25379;-79
2023/04/30 12:32:48;;;;;;;5.80;3.20;;;;;;;;;;107599;1249;22521;-77
2023/04/30 12:35:15;;;;;;;6.70;3.60;;;;;;;;;;107609;1250;22546;-78
2023/04/30 12:37:45;;;;;;;5.80;3.40;;;;;;;;;;107588;1249;22547;-80
2023/04/30 12:40:12;;;;;;;7.90;4.00;;;;;;;;;;107582;1250;22649;-78
2023/04/30 12:42:38;;;;;;;5.50;2.60;;;;;;;;;;107572;1249;31815;-77
2023/04/30 12:45:05;;;;;;;4.50;2.80;;;;;;;;;;107382;1250;59493;-78
2023/04/30 12:47:32;;;;;;;5.20;2.80;;;;;;;;;;106970;1252;62015;-80
2023/04/30 12:49:58;;;;;;;3.90;2.60;;;;;;;;;;106807;1252;62175;-78
2023/04/30 12:52:25;;;;;;;4.20;2.90;;;;;;;;;;106866;1250;62029;-78
2023/04/30 12:54:53;;;;;;;4.80;2.50;;;;;;;;;;106708;1252;62141;-80
2023/04/30 12:57:20;;;;;;;5.80;2.50;;;;;;;;;;106734;1252;62409;-80
2023/04/30 12:59:52;;;;;;;3.20;2.50;;;;;;;;;;106953;1249;62027;-78
2023/04/30 13:02:21;;;;;;;5.70;3.20;;;;;;;;;;106815;1252;62082;-78
2023/04/30 13:04:48;;;;;;;5.10;3.30;;;;;;;;;;107529;1250;62033;-78
2023/04/30 13:07:14;;;;;;;5.00;3.00;;;;;;;;;;107479;1250;59153;-80
2023/04/30 13:09:40;;;;;;;4.50;2.80;;;;;;;;;;107576;1252;39566;-78
2023/04/30 13:12:07;;;;;;;4.10;2.30;;;;;;;;;;107597;1251;22544;-78
2023/04/30 13:14:34;;;;;;;3.30;2.20;;;;;;;;;;107587;1250;23132;-78
2023/04/30 13:17:03;;;;;;;3.50;2.80;;;;;;;;;;107523;1250;59276;-78
2023/04/30 13:19:30;;;;;;;6.50;2.20;;;;;;;;;;107669;1249;25354;-81
2023/04/30 13:21:57;;;;;;;4.30;2.00;;;;;;;;;;107572;1250;25325;-78
2023/04/30 13:24:24;;;;;;;3.20;2.10;;;;;;;;;;107563;1250;22822;-78
2023/04/30 13:26:51;;;;;;;3.30;2.40;;;;;;;;;;107537;1250;25374;-78
2023/04/30 13:29:19;;;;;;;4.20;2.50;;;;;;;;;;107590;1252;22866;-80
2023/04/30 13:31:47;;;;;;;4.00;2.20;;;;;;;;;;107515;1250;25333;-78
2023/04/30 13:34:14;;;;;;;4.30;2.40;;;;;;;;;;107562;1250;24320;-78
2023/04/30 13:36:40;;;;;;;5.80;1.90;;;;;;;;;;107527;1249;26394;-78
2023/04/30 13:39:06;;;;;;;5.30;2.40;;;;;;;;;;107577;1248;22568;-78
2023/04/30 13:41:33;;;;;;;4.50;2.40;;;;;;;;;;107583;1250;25331;-78
2023/04/30 13:43:59;;;;;;;5.40;1.80;;;;;;;;;;107540;1252;22523;-79
2023/04/30 13:46:25;;;;;;;4.10;2.00;;;;;;;;;;107367;1252;59337;-80
2023/04/30 13:48:52;;;;;;;9.20;2.70;;;;;;;;;;107551;1248;24108;-78
2023/04/30 13:51:18;;;;;;;3.50;1.80;;;;;;;;;;107556;1250;36889;-78
2023/04/30 13:53:45;;;;;;;4.30;2.00;;;;;;;;;;107541;1250;23226;-80
2023/04/30 13:56:11;;;;;;;4.80;1.90;;;;;;;;;;107540;1250;22624;-78
2023/04/30 13:58:38;;;;;;;6.90;2.50;;;;;;;;;;107383;1248;157905;-79
2023/04/30 14:01:04;;;;;;;4.00;2.10;;;;;;;;;;107336;1251;62011;-78
2023/04/30 14:03:31;;;;;;;3.40;1.90;;;;;;;;;;107583;1250;22534;-80
2023/04/30 14:05:58;;;;;;;3.60;2.30;;;;;;;;;;107569;1250;25469;-78
2023/04/30 14:08:24;;;;;;;3.20;2.20;;;;;;;;;;107491;1250;60010;-78
2023/04/30 14:10:51;;;;;;;5.50;2.40;;;;;;;;;;107564;1250;24171;-79
2023/04/30 14:13:17;;;;;;;4.10;2.20;;;;;;;;;;107502;1250;39903;-80